Time;durP1;ratioP1;P1;durP2;ratioP2;P2;SDS_P1;SDS_P2;PMS_P1;PMS_P2;Temp;Humidity;BMP_temperature;BMP_pressure;BME280_temperature;BME280_humidity;BME280_pressure;Samples;Min_cycle;Max_cycle;Signal;HPM_P1;HPM_P2
2020/12/21 00:00:37;;;;;;;17.60;11.02;;;6.40;83.70;;;;;;5030006;28;20037;-66
2020/12/21 00:03:02;;;;;;;17.90;10.85;;;6.40;83.90;;;;;;5030443;28;20036;-65
2020/12/21 00:05:30;;;;;;;17.83;10.88;;;6.40;83.90;;;;;;5024705;28;20025;-66
2020/12/21 00:07:59;;;;;;;17.15;10.93;;;6.40;83.90;;;;;;5026913;28;20032;-65
2020/12/21 00:10:25;;;;;;;18.30;11.02;;;6.40;83.90;;;;;;5024740;28;20036;-66
2020/12/21 00:12:51;;;;;;;17.27;10.75;;;6.40;84.00;;;;;;5027549;28;20465;-66
2020/12/21 00:15:16;;;;;;;17.90;10.85;;;6.40;84.00;;;;;;5003045;28;20053;-66
2020/12/21 00:17:42;;;;;;;17.23;10.82;;;6.40;84.00;;;;;;5026740;28;20026;-66
2020/12/21 00:20:07;;;;;;;18.92;11.25;;;6.40;83.90;;;;;;5024226;28;20021;-66
2020/12/21 00:22:33;;;;;;;19.52;11.32;;;6.30;83.90;;;;;;5028738;28;20083;-66
2020/12/21 00:24:58;;;;;;;16.45;10.80;;;6.30;84.10;;;;;;5024502;28;20109;-65
2020/12/21 00:27:24;;;;;;;20.40;11.05;;;6.40;84.20;;;;;;5025972;28;20481;-66
2020/12/21 00:29:49;;;;;;;20.38;12.35;;;6.40;84.20;;;;;;5016736;28;20053;-66
2020/12/21 00:32:15;;;;;;;20.63;12.48;;;6.40;84.10;;;;;;5020387;28;20033;-66
2020/12/21 00:34:41;;;;;;;18.02;11.13;;;6.40;83.80;;;;;;5027286;28;20025;-66
2020/12/21 00:37:06;;;;;;;20.88;11.93;;;6.40;83.80;;;;;;5031620;28;20033;-66
2020/12/21 00:39:32;;;;;;;21.58;12.95;;;6.40;83.90;;;;;;5020077;28;20100;-66
2020/12/21 00:41:58;;;;;;;21.15;12.00;;;6.40;84.00;;;;;;5020664;28;20109;-65
2020/12/21 00:44:23;;;;;;;17.15;10.48;;;6.50;84.10;;;;;;5022333;28;20108;-66
2020/12/21 00:46:49;;;;;;;18.92;11.25;;;6.50;84.00;;;;;;5020014;28;20142;-66
2020/12/21 00:49:14;;;;;;;19.40;12.35;;;6.50;83.90;;;;;;5026977;28;20037;-66
2020/12/21 00:51:40;;;;;;;20.55;12.10;;;6.50;83.80;;;;;;5014689;28;20038;-66
2020/12/21 00:54:06;;;;;;;17.58;11.05;;;6.50;83.80;;;;;;5012565;28;20061;-66
2020/12/21 00:56:31;;;;;;;19.80;11.57;;;6.60;83.80;;;;;;5016473;28;20126;-66
2020/12/21 00:58:57;;;;;;;18.20;11.07;;;6.60;83.80;;;;;;5021880;28;20022;-66
2020/12/21 01:01:28;;;;;;;18.10;11.68;;;6.60;83.70;;;;;;5021515;28;20041;-66
2020/12/21 01:03:55;;;;;;;20.52;11.63;;;6.60;83.70;;;;;;5029327;28;20128;-66
2020/12/21 01:06:21;;;;;;;20.25;12.40;;;6.50;83.70;;;;;;5031254;28;20045;-66
2020/12/21 01:08:46;;;;;;;20.65;12.98;;;6.50;84.00;;;;;;5031104;28;20036;-66
2020/12/21 01:11:16;;;;;;;20.48;12.02;;;6.50;84.10;;;;;;5020684;28;20025;-66
2020/12/21 01:13:43;;;;;;;26.30;12.35;;;6.40;84.10;;;;;;5029171;28;20076;-66
2020/12/21 01:16:09;;;;;;;17.60;10.93;;;6.40;84.10;;;;;;4996782;28;20393;-66
2020/12/21 01:18:35;;;;;;;18.50;11.35;;;6.30;84.20;;;;;;5024456;28;20117;-66
2020/12/21 01:21:01;;;;;;;20.00;11.43;;;6.20;84.30;;;;;;5017708;28;20117;-65
2020/12/21 01:23:27;;;;;;;16.88;10.38;;;6.10;84.60;;;;;;5031080;28;20029;-66
2020/12/21 01:25:53;;;;;;;23.65;11.70;;;6.10;84.70;;;;;;5022517;28;20057;-66
2020/12/21 01:28:19;;;;;;;18.92;11.30;;;6.00;84.70;;;;;;5021881;28;20406;-65
2020/12/21 01:30:45;;;;;;;18.45;11.38;;;6.00;84.80;;;;;;5020318;28;20029;-66
2020/12/21 01:33:11;;;;;;;19.70;11.85;;;6.00;84.80;;;;;;5020755;28;20105;-66
2020/12/21 01:35:37;;;;;;;17.95;11.88;;;5.90;85.00;;;;;;5025778;28;20018;-66
2020/12/21 01:38:03;;;;;;;24.13;12.20;;;5.90;85.10;;;;;;5027747;28;20025;-66
2020/12/21 01:40:29;;;;;;;21.27;12.10;;;6.00;85.20;;;;;;5018908;28;20033;-66
2020/12/21 01:42:54;;;;;;;22.20;13.13;;;6.00;85.30;;;;;;5020071;28;20034;-66
2020/12/21 01:45:20;;;;;;;21.83;12.27;;;6.10;85.30;;;;;;5027449;28;20029;-66
2020/12/21 01:47:46;;;;;;;19.33;12.13;;;6.10;85.00;;;;;;5030874;28;20411;-66
2020/12/21 01:50:13;;;;;;;20.08;12.50;;;6.10;84.90;;;;;;5028404;28;20116;-66
2020/12/21 01:52:39;;;;;;;22.17;12.60;;;6.20;84.90;;;;;;5029264;28;20040;-66
2020/12/21 01:55:05;;;;;;;20.85;12.32;;;6.10;84.80;;;;;;5023595;28;20327;-66
2020/12/21 01:57:30;;;;;;;19.45;11.88;;;6.20;84.90;;;;;;5011970;28;20030;-66
2020/12/21 01:59:56;;;;;;;20.23;11.63;;;6.20;84.90;;;;;;5025038;28;20033;-66
2020/12/21 02:02:22;;;;;;;17.42;10.88;;;6.20;85.30;;;;;;5024722;28;20441;-66
2020/12/21 02:04:48;;;;;;;19.55;10.98;;;6.10;84.70;;;;;;5024435;28;20030;-65
2020/12/21 02:07:15;;;;;;;17.00;10.07;;;6.10;84.80;;;;;;5027919;28;20587;-66
2020/12/21 02:09:42;;;;;;;19.48;10.57;;;6.00;85.40;;;;;;5027370;28;20036;-66
2020/12/21 02:12:08;;;;;;;16.10;10.38;;;6.00;85.00;;;;;;5028962;28;20036;-66
2020/12/21 02:14:33;;;;;;;18.00;10.77;;;6.00;85.10;;;;;;5022930;28;20029;-66
2020/12/21 02:16:59;;;;;;;18.52;10.75;;;6.00;85.10;;;;;;4995405;28;20030;-66
2020/12/21 02:19:25;;;;;;;16.02;10.23;;;6.00;84.90;;;;;;5019665;28;20017;-66
2020/12/21 02:21:50;;;;;;;14.63;10.02;;;6.00;84.90;;;;;;5023860;28;20739;-66
2020/12/21 02:24:16;;;;;;;16.35;10.23;;;5.90;84.70;;;;;;5013827;28;20038;-66
2020/12/21 02:26:41;;;;;;;16.27;10.75;;;5.80;84.80;;;;;;5030631;28;20018;-66
2020/12/21 02:29:07;;;;;;;16.02;10.02;;;5.80;85.00;;;;;;5025326;28;20053;-65
2020/12/21 02:31:33;;;;;;;15.63;10.07;;;5.80;85.00;;;;;;5022531;28;20029;-65
2020/12/21 02:33:59;;;;;;;18.08;10.63;;;5.70;84.90;;;;;;5018668;28;20442;-66
2020/12/21 02:36:24;;;;;;;17.20;10.35;;;5.70;85.00;;;;;;5027677;28;20052;-66
2020/12/21 02:38:50;;;;;;;13.82;9.63;;;5.60;85.00;;;;;;5028033;28;20033;-66
2020/12/21 02:41:17;;;;;;;16.38;9.57;;;5.70;85.00;;;;;;5027083;28;20493;-66
2020/12/21 02:43:43;;;;;;;20.20;11.68;;;5.70;85.00;;;;;;5017312;28;20610;-65
2020/12/21 02:46:14;;;;;;;20.83;11.13;;;5.70;84.80;;;;;;5024937;28;20036;-66
2020/12/21 02:48:39;;;;;;;16.10;10.40;;;5.70;85.20;;;;;;5024088;28;20033;-65
2020/12/21 02:51:05;;;;;;;88.68;12.60;;;5.70;84.60;;;;;;5033584;23;20047;-66
2020/12/21 02:53:31;;;;;;;19.10;11.10;;;5.60;84.70;;;;;;5025370;28;20026;-66
2020/12/21 02:55:56;;;;;;;26.40;11.90;;;5.60;84.70;;;;;;5010793;28;20052;-66
2020/12/21 02:58:22;;;;;;;55.58;13.48;;;5.60;84.70;;;;;;5012148;28;20037;-66
2020/12/21 03:00:48;;;;;;;34.42;13.95;;;5.70;84.80;;;;;;5027373;28;20029;-66
2020/12/21 03:03:14;;;;;;;28.73;12.07;;;5.70;84.70;;;;;;5011348;28;20036;-65
2020/12/21 03:05:40;;;;;;;74.10;14.05;;;5.70;84.70;;;;;;5028318;28;20029;-65
2020/12/21 03:08:07;;;;;;;48.47;13.80;;;5.60;84.70;;;;;;5026646;28;20033;-65
2020/12/21 03:10:33;;;;;;;57.83;13.63;;;5.60;84.80;;;;;;5012709;28;20038;-65
2020/12/21 03:12:59;;;;;;;80.30;15.00;;;5.50;84.80;;;;;;5032294;28;20026;-64
2020/12/21 03:15:25;;;;;;;32.50;13.10;;;5.40;84.80;;;;;;5025134;28;20036;-65
2020/12/21 03:17:50;;;;;;;35.85;12.95;;;5.40;85.00;;;;;;5028053;28;20033;-65
2020/12/21 03:20:16;;;;;;;70.63;12.68;;;5.40;85.20;;;;;;5029621;28;20033;-67
2020/12/21 03:22:42;;;;;;;64.45;13.07;;;5.40;85.20;;;;;;5023544;28;20493;-68
2020/12/21 03:25:08;;;;;;;49.10;11.80;;;5.40;85.20;;;;;;5033348;28;20033;-65
2020/12/21 03:27:35;;;;;;;23.65;10.88;;;5.40;85.20;;;;;;5013645;28;20087;-65
2020/12/21 03:30:01;;;;;;;18.38;10.93;;;5.30;85.30;;;;;;5014356;28;20172;-67
2020/12/21 03:32:26;;;;;;;17.20;10.40;;;5.40;85.40;;;;;;5033089;28;20774;-65
2020/12/21 03:34:52;;;;;;;18.25;10.45;;;5.40;85.40;;;;;;5031864;28;20112;-65
2020/12/21 03:37:18;;;;;;;17.40;10.02;;;5.40;85.40;;;;;;5020989;28;20021;-66
2020/12/21 03:39:44;;;;;;;15.60;10.30;;;5.40;85.20;;;;;;5029379;28;20497;-65
2020/12/21 03:42:09;;;;;;;14.45;9.45;;;5.40;85.10;;;;;;5031327;28;20560;-65
2020/12/21 03:44:35;;;;;;;14.73;10.13;;;5.50;85.10;;;;;;5029188;28;20029;-66
2020/12/21 03:47:00;;;;;;;16.00;10.25;;;5.50;85.00;;;;;;5032253;28;20603;-64
2020/12/21 03:49:26;;;;;;;15.80;10.35;;;5.50;84.90;;;;;;5014313;28;20507;-65
2020/12/21 03:51:52;;;;;;;13.20;9.38;;;5.50;84.80;;;;;;5031876;28;20068;-66
2020/12/21 03:54:17;;;;;;;16.05;9.48;;;5.60;84.80;;;;;;5032875;28;20029;-66
2020/12/21 03:56:44;;;;;;;16.23;9.32;;;5.60;84.90;;;;;;5029763;28;20029;-65
2020/12/21 03:59:12;;;;;;;15.40;9.73;;;5.60;84.70;;;;;;5029899;28;20018;-66
2020/12/21 04:01:38;;;;;;;15.50;9.07;;;5.60;84.90;;;;;;5032497;28;20112;-66
2020/12/21 04:04:07;;;;;;;14.93;9.70;;;5.60;84.80;;;;;;5031237;28;20539;-65
2020/12/21 04:06:33;;;;;;;16.00;9.60;;;5.60;84.90;;;;;;5044198;28;20113;-66
2020/12/21 04:08:59;;;;;;;17.52;9.88;;;5.70;85.10;;;;;;5010492;28;20025;-65
2020/12/21 04:11:25;;;;;;;17.60;9.57;;;5.70;84.90;;;;;;5031010;28;20156;-65
2020/12/21 04:13:50;;;;;;;14.98;9.40;;;5.70;84.80;;;;;;5030629;28;20038;-65
2020/12/21 04:16:16;;;;;;;14.35;9.85;;;5.70;84.70;;;;;;5029564;28;20474;-67
2020/12/21 04:18:41;;;;;;;12.68;8.93;;;5.70;84.60;;;;;;5031661;28;20449;-66
2020/12/21 04:21:11;;;;;;;13.93;9.27;;;5.60;84.50;;;;;;5012363;28;20049;-66
2020/12/21 04:23:37;;;;;;;14.85;9.60;;;5.60;84.70;;;;;;5014336;28;20128;-66
2020/12/21 04:26:03;;;;;;;18.17;9.82;;;5.50;84.70;;;;;;5012639;28;20521;-67
2020/12/21 04:28:29;;;;;;;17.38;9.85;;;5.50;84.90;;;;;;5040635;28;20033;-65
2020/12/21 04:30:54;;;;;;;21.38;10.15;;;5.50;84.90;;;;;;5013654;28;20459;-65
2020/12/21 04:33:20;;;;;;;71.03;13.80;;;5.50;84.70;;;;;;5032468;28;20493;-66
2020/12/21 04:35:46;;;;;;;28.35;13.18;;;5.50;84.60;;;;;;5012669;28;20036;-66
2020/12/21 04:38:11;;;;;;;27.83;13.38;;;5.50;84.70;;;;;;5045071;28;20073;-66
2020/12/21 04:40:37;;;;;;;24.55;12.35;;;5.50;84.70;;;;;;5033426;28;20037;-66
2020/12/21 04:43:02;;;;;;;31.52;13.18;;;5.40;84.70;;;;;;5014603;28;20032;-65
2020/12/21 04:45:33;;;;;;;22.48;12.40;;;5.40;84.70;;;;;;5029481;28;20049;-66
2020/12/21 04:48:00;;;;;;;27.88;12.63;;;5.40;84.70;;;;;;5029625;28;20021;-65
2020/12/21 04:50:30;;;;;;;22.30;11.75;;;5.40;84.60;;;;;;5028249;28;20473;-66
2020/12/21 04:52:58;;;;;;;23.65;11.32;;;5.40;84.70;;;;;;5030781;28;20505;-65
2020/12/21 04:55:25;;;;;;;40.05;12.82;;;5.40;84.60;;;;;;5031120;28;20032;-67
2020/12/21 04:57:58;;;;;;;71.78;12.18;;;5.30;84.60;;;;;;5030568;28;20029;-65
2020/12/21 05:00:26;;;;;;;70.45;12.52;;;5.20;84.60;;;;;;5012851;28;20042;-66
2020/12/21 05:02:52;;;;;;;60.85;11.43;;;5.10;84.80;;;;;;5012904;28;20029;-66
2020/12/21 05:05:35;;;;;;;59.40;11.73;;;5.00;85.00;;;;;;5028189;28;20095;-66
2020/12/21 05:08:22;;;;;;;45.45;11.88;;;4.90;85.20;;;;;;5031112;28;20037;-66
2020/12/21 05:10:58;;;;;;;53.00;12.20;;;4.90;85.50;;;;;;5030345;28;20700;-66
2020/12/21 05:13:24;;;;;;;45.70;11.27;;;4.90;85.40;;;;;;5026573;28;20029;-65
2020/12/21 05:15:54;;;;;;;42.72;10.60;;;4.90;85.40;;;;;;5030256;28;20440;-67
2020/12/21 05:18:24;;;;;;;42.55;10.45;;;4.80;85.40;;;;;;5029341;28;20025;-66
2020/12/21 05:21:04;;;;;;;51.90;12.52;;;4.80;85.40;;;;;;5029223;28;20106;-66
2020/12/21 05:23:31;;;;;;;26.95;12.30;;;4.70;85.70;;;;;;5030135;28;20036;-64
2020/12/21 05:25:58;;;;;;;32.80;12.65;;;4.70;85.80;;;;;;5029930;28;20472;-66
2020/12/21 05:28:30;;;;;;;24.08;12.73;;;4.80;85.80;;;;;;5027889;28;20029;-66
2020/12/21 05:30:58;;;;;;;26.17;11.73;;;4.90;85.90;;;;;;5029662;28;20052;-66
2020/12/21 05:33:24;;;;;;;33.55;11.98;;;4.90;85.60;;;;;;5030023;28;20047;-66
2020/12/21 05:35:50;;;;;;;48.00;13.20;;;5.00;85.40;;;;;;5029985;28;20515;-65
2020/12/21 05:38:23;;;;;;;21.25;12.27;;;5.10;85.30;;;;;;5030758;28;20104;-67
2020/12/21 05:40:49;;;;;;;20.75;12.50;;;5.00;85.40;;;;;;5030857;28;20025;-67
2020/12/21 05:43:41;;;;;;;23.95;14.15;;;5.10;85.40;;;;;;5012853;28;20029;-66
2020/12/21 05:46:07;;;;;;;17.40;10.47;;;5.10;85.90;;;;;;5021118;28;20045;-66
2020/12/21 05:48:37;;;;;;;22.00;12.82;;;5.20;85.20;;;;;;5030062;28;20087;-68
2020/12/21 05:51:05;;;;;;;24.25;13.13;;;5.10;85.20;;;;;;5010618;28;20478;-67
2020/12/21 05:53:41;;;;;;;19.67;11.98;;;5.10;85.10;;;;;;5029499;28;20018;-66
2020/12/21 05:56:08;;;;;;;27.90;11.45;;;5.10;85.30;;;;;;5027892;28;20083;-66
2020/12/21 05:58:36;;;;;;;28.35;11.57;;;5.10;85.30;;;;;;5030932;28;20394;-67
2020/12/21 06:01:08;;;;;;;25.95;11.25;;;5.10;85.30;;;;;;5030854;28;20540;-65
2020/12/21 06:03:53;;;;;;;37.78;10.88;;;5.10;85.30;;;;;;5030047;28;20490;-67
2020/12/21 06:06:27;;;;;;;39.00;10.45;;;5.10;85.20;;;;;;5026399;28;20372;-64
2020/12/21 06:09:00;;;;;;;50.15;10.68;;;5.10;85.10;;;;;;5037753;28;20041;-65
2020/12/21 06:11:31;;;;;;;53.17;10.05;;;5.00;85.00;;;;;;5010401;28;20034;-66
2020/12/21 06:14:12;;;;;;;27.65;9.55;;;5.00;85.00;;;;;;5029676;28;20520;-65
2020/12/21 06:16:39;;;;;;;28.23;9.75;;;4.90;85.10;;;;;;5011180;28;20475;-66
2020/12/21 06:19:09;;;;;;;22.90;9.50;;;4.80;85.10;;;;;;5025290;28;20448;-66
2020/12/21 06:21:55;;;;;;;29.98;9.93;;;4.70;85.30;;;;;;5029800;28;20033;-66
2020/12/21 06:24:25;;;;;;;37.28;10.05;;;4.70;85.70;;;;;;5029384;28;20049;-66
2020/12/21 06:26:52;;;;;;;58.92;9.82;;;4.70;85.70;;;;;;5025785;28;20048;-66
2020/12/21 06:29:22;;;;;;;30.88;12.07;;;4.70;85.60;;;;;;5030099;28;20076;-66
2020/12/21 06:31:51;;;;;;;83.00;12.43;;;4.70;85.60;;;;;;5030253;28;20029;-66
2020/12/21 06:34:28;;;;;;;28.00;12.18;;;4.70;85.60;;;;;;5031001;28;20022;-67
2020/12/21 06:37:10;;;;;;;20.27;10.70;;;4.70;85.70;;;;;;5029224;28;20424;-65
2020/12/21 06:39:37;;;;;;;19.63;8.27;;;4.80;85.80;;;;;;5029365;28;20049;-66
2020/12/21 06:42:14;;;;;;;21.08;11.07;;;4.90;85.60;;;;;;5029420;28;20105;-67
2020/12/21 06:44:42;;;;;;;24.35;12.70;;;4.90;85.60;;;;;;5029197;28;20030;-67
2020/12/21 06:47:09;;;;;;;24.02;12.60;;;5.00;85.60;;;;;;5030170;28;20037;-67
2020/12/21 06:49:35;;;;;;;37.75;13.27;;;5.00;85.90;;;;;;5030162;28;20060;-67
2020/12/21 06:52:01;;;;;;;26.42;14.27;;;5.00;85.30;;;;;;5030100;28;20040;-67
2020/12/21 06:54:27;;;;;;;21.67;11.45;;;5.10;85.40;;;;;;5029692;28;20025;-66
2020/12/21 06:56:52;;;;;;;42.95;15.85;;;5.10;85.40;;;;;;5030103;28;20104;-66
2020/12/21 06:59:22;;;;;;;50.00;16.45;;;5.10;85.30;;;;;;5030157;28;20050;-66
2020/12/21 07:01:50;;;;;;;32.03;15.13;;;5.10;85.20;;;;;;5035378;28;20473;-66
2020/12/21 07:04:24;;;;;;;57.13;14.18;;;5.00;85.20;;;;;;5029813;28;20026;-66
2020/12/21 07:06:51;;;;;;;45.03;19.48;;;4.90;85.30;;;;;;5029812;28;20057;-65
2020/12/21 07:09:27;;;;;;;32.40;15.73;;;4.90;86.00;;;;;;5029212;28;20036;-65
2020/12/21 07:12:01;;;;;;;39.03;13.63;;;4.80;85.80;;;;;;5030154;28;20029;-65
2020/12/21 07:14:29;;;;;;;109.60;12.90;;;4.80;85.90;;;;;;5029535;28;20025;-65
2020/12/21 07:17:05;;;;;;;168.77;12.70;;;4.80;85.70;;;;;;5029718;28;20035;-65
2020/12/21 07:19:36;;;;;;;107.10;12.48;;;4.60;85.70;;;;;;5012691;28;20075;-64
2020/12/21 07:22:09;;;;;;;60.15;12.40;;;4.50;85.70;;;;;;5012320;28;20036;-66
2020/12/21 07:24:35;;;;;;;;;;;4.40;86.00;;;;;;5029890;28;20033;-65
2020/12/21 07:27:01;;;;;;;71.18;11.88;;;4.40;85.90;;;;;;5012085;28;19909;-65
2020/12/21 07:29:38;;;;;;;62.55;12.88;;;4.40;86.00;;;;;;5012200;28;20036;-65
2020/12/21 07:32:05;;;;;;;42.45;14.10;;;4.40;86.10;;;;;;5012355;28;20034;-66
2020/12/21 07:34:31;;;;;;;32.88;14.30;;;4.40;86.10;;;;;;5029470;28;20072;-66
2020/12/21 07:36:57;;;;;;;35.45;14.43;;;4.40;86.80;;;;;;5029024;28;20021;-66
2020/12/21 07:39:23;;;;;;;28.58;14.45;;;4.50;86.40;;;;;;5030126;28;20108;-66
2020/12/21 07:41:51;;;;;;;29.33;15.07;;;4.50;86.30;;;;;;5029820;28;20026;-66
2020/12/21 07:44:16;;;;;;;26.67;14.27;;;4.60;86.30;;;;;;5029028;28;20037;-66
2020/12/21 07:46:51;;;;;;;26.33;13.85;;;4.70;86.40;;;;;;5030075;28;20030;-65
2020/12/21 07:49:17;;;;;;;19.60;11.70;;;4.70;86.30;;;;;;5029939;28;20359;-68
2020/12/21 07:51:44;;;;;;;18.67;11.50;;;4.70;86.00;;;;;;5027533;28;20029;-64
2020/12/21 07:54:12;;;;;;;16.55;10.98;;;4.70;85.90;;;;;;5029234;28;20037;-64
2020/12/21 07:56:38;;;;;;;25.10;13.23;;;4.70;86.00;;;;;;5031316;28;20036;-64
2020/12/21 07:59:30;;;;;;;17.00;11.10;;;4.80;86.30;;;;;;5016306;28;20029;-64
2020/12/21 08:02:00;;;;;;;20.00;12.10;;;4.80;86.20;;;;;;5029219;28;20068;-64
2020/12/21 08:04:27;;;;;;;17.27;11.25;;;5.00;86.50;;;;;;5028166;28;20037;-65
2020/12/21 08:06:53;;;;;;;19.38;10.25;;;5.10;86.10;;;;;;5025716;28;20029;-64
2020/12/21 08:09:19;;;;;;;14.73;9.65;;;5.10;85.60;;;;;;5035946;28;20033;-64
2020/12/21 08:11:45;;;;;;;16.13;10.57;;;5.00;85.50;;;;;;5032861;28;20084;-65
2020/12/21 08:14:16;;;;;;;21.13;12.90;;;5.00;85.80;;;;;;5031699;28;20018;-65
2020/12/21 08:16:42;;;;;;;18.95;11.25;;;5.00;86.00;;;;;;5032664;28;20035;-66
2020/12/21 08:19:13;;;;;;;17.17;10.70;;;5.10;85.90;;;;;;5033176;28;20109;-66
2020/12/21 08:21:41;;;;;;;13.73;8.05;;;5.10;85.80;;;;;;5032985;28;20028;-65
2020/12/21 08:24:07;;;;;;;19.92;11.65;;;5.30;85.70;;;;;;5032297;28;20033;-65
2020/12/21 08:26:36;;;;;;;19.35;11.57;;;5.30;85.50;;;;;;5032836;28;20120;-66
2020/12/21 08:29:03;;;;;;;18.90;11.63;;;5.30;85.50;;;;;;5026544;28;20117;-67
2020/12/21 08:31:29;;;;;;;21.63;11.98;;;5.30;85.40;;;;;;5015015;28;20041;-67
2020/12/21 08:34:07;;;;;;;19.58;11.10;;;5.40;85.30;;;;;;5032687;28;20509;-67
2020/12/21 08:36:34;;;;;;;19.30;11.82;;;5.40;85.30;;;;;;5031861;28;20045;-67
2020/12/21 08:39:14;;;;;;;21.98;12.50;;;5.50;85.20;;;;;;5033851;28;20033;-66
2020/12/21 08:41:43;;;;;;;26.58;13.45;;;5.50;85.30;;;;;;5032333;28;20083;-67
2020/12/21 08:44:26;;;;;;;25.65;14.85;;;5.50;85.10;;;;;;5032511;28;20075;-65
2020/12/21 08:46:58;;;;;;;30.00;14.25;;;5.50;85.10;;;;;;5005734;28;20120;-64
2020/12/21 08:49:25;;;;;;;31.55;14.23;;;5.50;84.90;;;;;;5032402;28;20171;-66
2020/12/21 08:51:52;;;;;;;24.48;13.75;;;5.50;85.00;;;;;;4574100;23;12891445;-63
2020/12/21 08:54:18;;;;;;;34.05;15.65;;;5.50;85.10;;;;;;4992295;28;20034;-64
2020/12/21 08:56:48;;;;;;;25.95;14.18;;;5.50;85.10;;;;;;4998521;28;20048;-64
2020/12/21 08:59:17;;;;;;;24.23;14.63;;;5.50;85.20;;;;;;5012427;28;20109;-63
2020/12/21 09:01:43;;;;;;;23.38;13.52;;;5.50;85.10;;;;;;5012350;28;20425;-63
2020/12/21 09:04:09;;;;;;;23.50;13.48;;;5.50;85.10;;;;;;5011622;28;20095;-64
2020/12/21 09:06:35;;;;;;;20.30;12.90;;;5.40;85.20;;;;;;5008242;28;20038;-64
2020/12/21 09:09:00;;;;;;;21.60;13.40;;;5.40;85.60;;;;;;5012177;28;20025;-64
2020/12/21 09:11:26;;;;;;;21.70;11.75;;;5.40;85.20;;;;;;5012067;28;20157;-64
2020/12/21 09:13:53;;;;;;;22.35;11.90;;;5.40;85.30;;;;;;5011879;28;20092;-64
2020/12/21 09:16:20;;;;;;;17.83;11.25;;;5.40;85.40;;;;;;5012243;28;20508;-64
2020/12/21 09:18:46;;;;;;;20.65;12.88;;;5.40;85.50;;;;;;5012099;28;20022;-64
2020/12/21 09:21:27;;;;;;;21.02;12.45;;;5.40;85.50;;;;;;5011175;28;20033;-63
2020/12/21 09:23:54;;;;;;;28.27;12.80;;;5.40;85.70;;;;;;5011300;28;20030;-63
2020/12/21 09:26:21;;;;;;;22.08;13.20;;;5.40;85.60;;;;;;4991400;28;20423;-63
2020/12/21 09:28:47;;;;;;;22.08;13.13;;;5.40;85.70;;;;;;4992585;28;20110;-64
2020/12/21 09:31:15;;;;;;;24.45;13.63;;;5.40;85.90;;;;;;5004842;28;20080;-63
2020/12/21 09:33:41;;;;;;;22.15;12.77;;;5.40;86.00;;;;;;5011777;28;20475;-64
2020/12/21 09:36:08;;;;;;;21.65;13.10;;;5.50;86.00;;;;;;5002762;28;20037;-63
2020/12/21 09:38:34;;;;;;;24.42;13.95;;;5.50;85.90;;;;;;5005784;28;20046;-64
2020/12/21 09:40:59;;;;;;;23.42;13.45;;;5.60;85.90;;;;;;5011191;28;20072;-64
2020/12/21 09:43:25;;;;;;;27.40;14.05;;;5.70;85.80;;;;;;5006819;28;20030;-64
2020/12/21 09:45:51;;;;;;;21.67;13.05;;;5.70;85.80;;;;;;4998045;28;20030;-64
2020/12/21 09:48:17;;;;;;;24.60;13.60;;;5.80;85.80;;;;;;5010846;28;20474;-63
2020/12/21 09:50:42;;;;;;;22.42;12.95;;;5.80;85.80;;;;;;5010805;28;20049;-64
2020/12/21 09:53:08;;;;;;;26.45;13.95;;;5.90;85.80;;;;;;5011502;28;20478;-63
2020/12/21 09:55:34;;;;;;;22.42;13.00;;;6.00;85.70;;;;;;5011617;28;20030;-64
2020/12/21 09:57:59;;;;;;;21.13;12.40;;;6.00;85.60;;;;;;5011432;28;20026;-63
2020/12/21 10:00:28;;;;;;;21.33;12.43;;;6.10;85.60;;;;;;5011537;28;20022;-63
2020/12/21 10:02:54;;;;;;;37.33;17.40;;;6.10;85.60;;;;;;4993385;28;20118;-64
2020/12/21 10:05:19;;;;;;;20.83;12.35;;;6.00;85.60;;;;;;4996375;28;20123;-64
2020/12/21 10:07:45;;;;;;;19.88;11.82;;;6.10;85.80;;;;;;5011598;28;20096;-63
2020/12/21 10:10:11;;;;;;;19.27;11.90;;;6.10;85.80;;;;;;5011822;28;20041;-63
2020/12/21 10:12:37;;;;;;;17.92;11.52;;;6.10;85.70;;;;;;5011809;28;20072;-64
2020/12/21 10:15:03;;;;;;;18.00;11.52;;;6.10;85.70;;;;;;4993507;28;20018;-62
2020/12/21 10:17:28;;;;;;;18.45;10.18;;;6.20;85.70;;;;;;5010928;28;20651;-64
2020/12/21 10:19:54;;;;;;;17.67;10.82;;;6.20;85.80;;;;;;5010676;28;20025;-64
2020/12/21 10:22:19;;;;;;;19.85;10.70;;;6.20;85.80;;;;;;5005404;28;20034;-63
2020/12/21 10:24:45;;;;;;;16.55;10.35;;;6.20;85.80;;;;;;5010336;28;20026;-64
2020/12/21 10:27:10;;;;;;;17.55;10.48;;;6.30;85.80;;;;;;5011190;28;20112;-64
2020/12/21 10:29:36;;;;;;;16.17;11.18;;;6.30;85.70;;;;;;5011037;28;20042;-64
2020/12/21 10:32:01;;;;;;;18.55;11.35;;;6.40;85.80;;;;;;5010722;28;20475;-62
2020/12/21 10:34:27;;;;;;;17.90;11.10;;;6.50;85.80;;;;;;5010706;28;20037;-64
2020/12/21 10:36:53;;;;;;;18.02;10.60;;;6.50;85.60;;;;;;5009738;28;20092;-63
2020/12/21 10:39:19;;;;;;;20.83;11.68;;;6.50;85.50;;;;;;5011114;28;20493;-64
2020/12/21 10:41:45;;;;;;;20.00;12.48;;;6.60;85.40;;;;;;5010729;28;20038;-64
2020/12/21 10:44:11;;;;;;;20.85;11.55;;;6.60;85.30;;;;;;5010148;28;20409;-64
2020/12/21 10:46:37;;;;;;;22.38;12.93;;;6.70;85.40;;;;;;5010393;28;20022;-63
2020/12/21 10:49:03;;;;;;;18.58;11.82;;;6.70;85.30;;;;;;5010988;28;20470;-63
2020/12/21 10:51:29;;;;;;;19.45;11.95;;;6.70;85.20;;;;;;5009808;28;20112;-63
2020/12/21 10:53:55;;;;;;;21.23;12.55;;;6.70;85.30;;;;;;4992823;28;20037;-63
2020/12/21 10:56:21;;;;;;;21.95;12.30;;;6.70;85.30;;;;;;5010567;28;20026;-64
2020/12/21 10:58:47;;;;;;;18.10;11.57;;;6.70;85.40;;;;;;5010694;28;20025;-63
2020/12/21 11:01:15;;;;;;;16.02;10.05;;;6.70;85.50;;;;;;5006558;28;20025;-64
2020/12/21 11:03:40;;;;;;;16.52;9.85;;;6.70;85.60;;;;;;5010413;28;20033;-63
2020/12/21 11:06:06;;;;;;;15.98;9.75;;;6.80;85.70;;;;;;5008917;28;20022;-64
2020/12/21 11:08:31;;;;;;;17.38;10.82;;;6.80;85.70;;;;;;5010383;28;20030;-64
2020/12/21 11:10:57;;;;;;;14.40;10.13;;;6.80;85.70;;;;;;5010564;28;20034;-63
2020/12/21 11:13:23;;;;;;;19.65;10.73;;;6.90;85.70;;;;;;5010573;28;20478;-63
2020/12/21 11:15:48;;;;;;;15.10;10.48;;;6.90;85.70;;;;;;5010075;28;20053;-63
2020/12/21 11:18:14;;;;;;;17.77;10.85;;;7.00;85.60;;;;;;5010631;28;20025;-64
2020/12/21 11:20:39;;;;;;;16.40;10.85;;;7.10;85.60;;;;;;5010659;28;20387;-63
2020/12/21 11:23:05;;;;;;;15.63;10.48;;;7.10;85.50;;;;;;5010421;28;20022;-63
2020/12/21 11:25:30;;;;;;;17.88;11.13;;;7.20;85.40;;;;;;5009835;28;20026;-64
2020/12/21 11:27:59;;;;;;;15.30;10.10;;;7.10;85.40;;;;;;5010383;28;20018;-64
2020/12/21 11:30:24;;;;;;;16.10;10.27;;;7.20;86.10;;;;;;5010633;28;20025;-64
2020/12/21 11:32:50;;;;;;;15.45;10.48;;;7.20;85.50;;;;;;5014324;28;20470;-64
2020/12/21 11:35:16;;;;;;;20.95;12.52;;;7.30;85.50;;;;;;5010034;28;20093;-64
2020/12/21 11:37:41;;;;;;;19.08;12.05;;;7.30;85.40;;;;;;5013659;28;20062;-63
2020/12/21 11:40:07;;;;;;;17.60;10.80;;;7.40;85.30;;;;;;5013904;28;20033;-64
2020/12/21 11:42:32;;;;;;;15.40;9.68;;;7.40;85.10;;;;;;5011948;28;20030;-64
2020/12/21 11:44:58;;;;;;;17.08;10.45;;;7.50;85.10;;;;;;5013023;28;20125;-64
2020/12/21 11:47:24;;;;;;;18.45;10.85;;;7.50;85.00;;;;;;5013480;28;20057;-63
2020/12/21 11:49:49;;;;;;;16.33;10.60;;;7.60;85.10;;;;;;5013043;28;20041;-63
2020/12/21 11:52:15;;;;;;;16.05;10.85;;;7.60;85.10;;;;;;5013094;28;20030;-64
2020/12/21 11:54:40;;;;;;;15.35;10.27;;;7.50;85.20;;;;;;4995250;28;20053;-63
2020/12/21 11:57:06;;;;;;;15.25;10.52;;;7.60;85.20;;;;;;5013955;28;20029;-63
2020/12/21 11:59:31;;;;;;;17.92;10.80;;;7.60;85.20;;;;;;5013003;28;20026;-64
2020/12/21 12:02:01;;;;;;;15.52;10.18;;;7.60;85.30;;;;;;5012804;28;20057;-64
2020/12/21 12:04:27;;;;;;;18.70;11.63;;;7.60;85.30;;;;;;5012017;28;20095;-64
2020/12/21 12:06:54;;;;;;;17.75;11.27;;;7.60;85.30;;;;;;5012610;28;20470;-64
2020/12/21 12:09:26;;;;;;;14.98;10.18;;;7.60;85.10;;;;;;5013742;28;20017;-64
2020/12/21 12:11:52;;;;;;;16.60;10.20;;;7.60;85.10;;;;;;5013378;28;20030;-64
2020/12/21 12:14:18;;;;;;;17.50;11.55;;;7.50;85.20;;;;;;5003029;28;20042;-64
2020/12/21 12:16:43;;;;;;;16.63;11.32;;;7.50;85.40;;;;;;5013077;28;20088;-64
2020/12/21 12:19:09;;;;;;;16.88;11.52;;;7.50;85.50;;;;;;5010966;28;20017;-64
2020/12/21 12:21:35;;;;;;;16.90;11.57;;;7.60;85.50;;;;;;5003103;28;20034;-64
2020/12/21 12:24:00;;;;;;;19.10;12.20;;;7.60;85.60;;;;;;5013026;28;20030;-64
2020/12/21 12:26:26;;;;;;;20.13;12.25;;;7.60;85.50;;;;;;5013239;28;20386;-63
2020/12/21 12:28:56;;;;;;;17.77;11.40;;;7.60;85.50;;;;;;5013439;28;20045;-63
2020/12/21 12:31:22;;;;;;;15.35;10.60;;;7.70;85.50;;;;;;5012707;28;20029;-64
2020/12/21 12:33:48;;;;;;;17.77;10.88;;;7.60;85.50;;;;;;5013265;28;20018;-65
2020/12/21 12:36:22;;;;;;;16.05;10.23;;;7.70;85.80;;;;;;4999691;28;20474;-64
2020/12/21 12:38:48;;;;;;;15.48;10.30;;;7.80;85.90;;;;;;5013250;28;20053;-64